Aérodrome :
LOGIN :

S'inscrire | Disclaimer

   EN    FR    IT 

 










Légende :    VFR   VFR Marginal   IFR   IFR Intensif   IFR Très Intensif
Visi : 
Plafond : 
>= 8 km
>= 3000ft
5 à 8 km
1000 à 3000 ft
1500m à 5 km
500 à 1000 ft
800 à 1500m
200 à 500 ft
< 800m
< 200 ft
Symboles :   Orages  Brouillard  Fortes neiges  Fortes précipitations  Vent > 20 kt
SIGMETs :   Divers  Orages  Givrage  Turbulence  Onde Orograph.  Cendres Volcan.







- Altitude de l'aérodrome : 446 ft
- Code IATA : VNE
- Voir les cartes d'approche


LFRV - Vannes-Meucon

DERNIER METAR :
  • 300300Z AUTO 13004KT 110V170 CAVOK 11/03 Q1000

METARs EXPIRÉS :
  • 300230Z AUTO 16005KT CAVOK 11/02 Q1001
  • 300200Z AUTO 17007KT CAVOK 11/01 Q1001
  • 300130Z AUTO 14010KT CAVOK 12/01 Q1001
  • 300100Z AUTO 14010KT CAVOK 12/01 Q1002
  • 300030Z AUTO 13010KT CAVOK 12/01 Q1002

TAF N/A
Pas de NOTAMs connus pour ce terrain.
1 SIGMET publié pour la FIR Brest (LFRR) :
 
Orages noyés dans la masse
LFRR SIGMET 1 VALID 300300/300500 LFPW
LFRR BREST FIR/UIR EMBD TS OBS WI N4630 W00130 - N4530 W00145 - N4545 W00330 - N4800 W00415 - N4730 W00230 TOP FL280 MOV NE 20KT NC=



MET'MAP, la Météo Aéronautique d'un coup d'oeil ! - Copyright ORBIFLY Décembre 2007 - Disclaimer

ORBIFLY MET'MAP TEAM :

Programmation & Développement : Alexandra Zaïnal
Conception & Développement : Baudouin d'Aumeries
Co-Programmation & Développement : Marc-Olivier Méhu
Soutien technique & logistique : Manuel Goepfert

Contact : metmap@orbifly.com




SOURCES & CREDITS :

   NOAA